Time;durP1;ratioP1;P1;durP2;ratioP2;P2;SDS_P1;SDS_P2;PMS_P1;PMS_P2;Temp;Humidity;BMP_temperature;BMP_pressure;BME280_temperature;BME280_humidity;BME280_pressure;Samples;Min_cycle;Max_cycle;Signal;HPM_P1;HPM_P2
2020/08/01 00:01:11;;;;;;;9.3;6.7;;;;;;;;;;;;;
2020/08/01 00:03:36;;;;;;;8.3;6.5;;;;;;;;;;;;;
2020/08/01 00:06:02;;;;;;;9.4;6.7;;;;;;;;;;;;;
2020/08/01 00:08:31;;;;;;;9.8;6.9;;;;;;;;;;;;;
2020/08/01 00:10:56;;;;;;;8.5;6.6;;;;;;;;;;;;;
2020/08/01 00:13:21;;;;;;;12.4;6.9;;;;;;;;;;;;;
2020/08/01 00:15:48;;;;;;;9.2;6.9;;;;;;;;;;;;;
2020/08/01 00:18:13;;;;;;;9.7;7;;;;;;;;;;;;;
2020/08/01 00:20:38;;;;;;;9.6;7;;;;;;;;;;;;;
2020/08/01 00:23:03;;;;;;;8.6;7.2;;;;;;;;;;;;;
2020/08/01 00:25:28;;;;;;;10.2;7.2;;;;;;;;;;;;;
2020/08/01 00:27:56;;;;;;;10.7;7.2;;;;;;;;;;;;;
2020/08/01 00:30:22;;;;;;;9.6;7;;;;;;;;;;;;;
2020/08/01 00:32:46;;;;;;;10.4;7.4;;;;;;;;;;;;;
2020/08/01 00:35:14;;;;;;;8.9;7.1;;;;;;;;;;;;;
2020/08/01 00:37:39;;;;;;;8.6;6.7;;;;;;;;;;;;;
2020/08/01 00:40:04;;;;;;;10.4;6.7;;;;;;;;;;;;;
2020/08/01 00:42:30;;;;;;;8.9;6.8;;;;;;;;;;;;;
2020/08/01 00:44:54;;;;;;;8.7;6.7;;;;;;;;;;;;;
2020/08/01 00:47:20;;;;;;;10.1;7.2;;;;;;;;;;;;;
2020/08/01 00:49:45;;;;;;;8.7;7.2;;;;;;;;;;;;;
2020/08/01 00:52:11;;;;;;;10.6;7.1;;;;;;;;;;;;;
2020/08/01 00:54:37;;;;;;;10;6.7;;;;;;;;;;;;;
2020/08/01 00:57:14;;;;;;;9.8;6.9;;;;;;;;;;;;;
2020/08/01 00:59:28;;;;;;;9.1;7;;;;;;;;;;;;;
2020/08/01 01:01:53;;;;;;;9.4;7;;;;;;;;;;;;;
2020/08/01 01:04:21;;;;;;;8.8;7;;;;;;;;;;;;;
2020/08/01 01:06:45;;;;;;;12;7.8;;;;;;;;;;;;;
2020/08/01 01:09:12;;;;;;;8.3;7.3;;;;;;;;;;;;;
2020/08/01 01:11:37;;;;;;;8.5;7.5;;;;;;;;;;;;;
2020/08/01 01:14:05;;;;;;;10.7;7.1;;;;;;;;;;;;;
2020/08/01 01:16:30;;;;;;;10.2;7.8;;;;;;;;;;;;;
2020/08/01 01:18:57;;;;;;;8.3;7;;;;;;;;;;;;;
2020/08/01 01:21:22;;;;;;;8.1;7.3;;;;;;;;;;;;;
2020/08/01 01:23:49;;;;;;;10.8;7.3;;;;;;;;;;;;;
2020/08/01 01:26:14;;;;;;;14.5;7.3;;;;;;;;;;;;;
2020/08/01 01:28:39;;;;;;;8.4;7;;;;;;;;;;;;;
2020/08/01 01:31:06;;;;;;;10.7;7.3;;;;;;;;;;;;;
2020/08/01 01:33:31;;;;;;;14.8;7.1;;;;;;;;;;;;;
2020/08/01 01:35:59;;;;;;;8.8;7.2;;;;;;;;;;;;;
2020/08/01 01:38:24;;;;;;;9.5;7.1;;;;;;;;;;;;;
2020/08/01 01:40:54;;;;;;;9.1;7;;;;;;;;;;;;;
2020/08/01 01:43:21;;;;;;;8.3;7.4;;;;;;;;;;;;;
2020/08/01 01:45:47;;;;;;;8.8;7.4;;;;;;;;;;;;;
2020/08/01 01:48:12;;;;;;;10.2;7.5;;;;;;;;;;;;;
2020/08/01 01:50:38;;;;;;;10.7;7.3;;;;;;;;;;;;;
2020/08/01 01:53:03;;;;;;;10.1;8.1;;;;;;;;;;;;;
2020/08/01 01:55:28;;;;;;;10.1;8;;;;;;;;;;;;;
2020/08/01 01:57:55;;;;;;;12.1;8.2;;;;;;;;;;;;;
2020/08/01 02:00:32;;;;;;;10;7.7;;;;;;;;;;;;;
2020/08/01 02:02:48;;;;;;;9.2;7.6;;;;;;;;;;;;;
2020/08/01 02:05:13;;;;;;;10.8;7.1;;;;;;;;;;;;;
2020/08/01 02:07:41;;;;;;;9.9;7.5;;;;;;;;;;;;;
2020/08/01 02:10:06;;;;;;;10.1;7.2;;;;;;;;;;;;;
2020/08/01 02:12:31;;;;;;;9.1;7.3;;;;;;;;;;;;;
2020/08/01 02:14:57;;;;;;;8.3;6.8;;;;;;;;;;;;;
2020/08/01 02:17:22;;;;;;;9.6;7.4;;;;;;;;;;;;;
2020/08/01 02:19:47;;;;;;;9.9;7.8;;;;;;;;;;;;;
2020/08/01 02:22:14;;;;;;;10.7;7.5;;;;;;;;;;;;;
2020/08/01 02:24:39;;;;;;;8.9;7.9;;;;;;;;;;;;;
2020/08/01 02:27:05;;;;;;;10.8;8.1;;;;;;;;;;;;;
2020/08/01 02:29:30;;;;;;;10.5;7.8;;;;;;;;;;;;;
2020/08/01 02:31:55;;;;;;;10.9;8;;;;;;;;;;;;;
2020/08/01 02:34:21;;;;;;;10;7.6;;;;;;;;;;;;;
2020/08/01 02:36:46;;;;;;;11.7;8.1;;;;;;;;;;;;;
2020/08/01 02:39:11;;;;;;;10.3;7.7;;;;;;;;;;;;;
2020/08/01 02:41:39;;;;;;;11.2;7.5;;;;;;;;;;;;;
2020/08/01 02:44:04;;;;;;;8.9;7.4;;;;;;;;;;;;;
2020/08/01 02:46:30;;;;;;;10.1;7.4;;;;;;;;;;;;;
2020/08/01 02:48:55;;;;;;;10.4;7.8;;;;;;;;;;;;;
2020/08/01 02:51:21;;;;;;;9.7;7.7;;;;;;;;;;;;;
2020/08/01 02:53:46;;;;;;;11;8;;;;;;;;;;;;;
2020/08/01 02:56:13;;;;;;;10;7.8;;;;;;;;;;;;;
2020/08/01 02:58:38;;;;;;;11.1;7.8;;;;;;;;;;;;;
2020/08/01 03:01:03;;;;;;;12.9;8.4;;;;;;;;;;;;;
2020/08/01 03:03:30;;;;;;;10.3;8.1;;;;;;;;;;;;;
2020/08/01 03:05:55;;;;;;;10.5;8.3;;;;;;;;;;;;;
2020/08/01 03:08:21;;;;;;;9.3;7.8;;;;;;;;;;;;;
2020/08/01 03:10:46;;;;;;;10;7.9;;;;;;;;;;;;;
2020/08/01 03:13:13;;;;;;;10;7.5;;;;;;;;;;;;;
2020/08/01 03:15:42;;;;;;;10.9;8.3;;;;;;;;;;;;;
2020/08/01 03:18:06;;;;;;;8.9;8;;;;;;;;;;;;;
2020/08/01 03:20:34;;;;;;;10.8;8;;;;;;;;;;;;;
2020/08/01 03:22:59;;;;;;;9.6;7.7;;;;;;;;;;;;;
2020/08/01 03:25:25;;;;;;;11;7.9;;;;;;;;;;;;;
2020/08/01 03:27:50;;;;;;;13.3;8.2;;;;;;;;;;;;;
2020/08/01 03:30:19;;;;;;;12.1;8.4;;;;;;;;;;;;;
2020/08/01 03:32:44;;;;;;;14.3;8.8;;;;;;;;;;;;;
2020/08/01 03:35:10;;;;;;;9.4;7.5;;;;;;;;;;;;;
2020/08/01 03:37:35;;;;;;;11.8;8.4;;;;;;;;;;;;;
2020/08/01 03:40:00;;;;;;;11.7;8.4;;;;;;;;;;;;;
2020/08/01 03:42:26;;;;;;;10.4;8;;;;;;;;;;;;;
2020/08/01 03:44:51;;;;;;;10.4;8.3;;;;;;;;;;;;;
2020/08/01 03:47:15;;;;;;;14.3;8.2;;;;;;;;;;;;;
2020/08/01 03:49:41;;;;;;;12.3;8.3;;;;;;;;;;;;;
2020/08/01 03:52:06;;;;;;;11.5;8.5;;;;;;;;;;;;;
2020/08/01 03:54:31;;;;;;;11.9;8.5;;;;;;;;;;;;;
2020/08/01 03:56:56;;;;;;;14;9;;;;;;;;;;;;;
2020/08/01 03:59:21;;;;;;;15.8;8.5;;;;;;;;;;;;;
2020/08/01 04:02:32;;;;;;;11.5;8.4;;;;;;;19.71;81.59375;938.625;;;;
2020/08/01 04:05:00;;;;;;;10.3;8.2;;;;;;;19.45;82.99219;938.6777;;;;
2020/08/01 04:07:30;;;;;;;11.1;8.7;;;;;;;19.43;83.31445;938.6588;;;;
2020/08/01 04:09:55;;;;;;;11.7;8.8;;;;;;;19.54;82.69531;938.6967;;;;
2020/08/01 04:12:22;;;;;;;11;8.4;;;;;;;19.63;82.30273;938.6545;;;;
2020/08/01 04:14:47;;;;;;;11.4;8.4;;;;;;;19.71;81.81641;938.6863;;;;
2020/08/01 04:17:12;;;;;;;13.2;8.3;;;;;;;19.77;81.54883;938.7286;;;;
2020/08/01 04:19:41;;;;;;;9.5;7.9;;;;;;;19.88;80.91504;938.7697;;;;
2020/08/01 04:22:06;;;;;;;12.9;8;;;;;;;19.78;81.27051;938.7459;;;;
2020/08/01 04:24:34;;;;;;;11.9;7.9;;;;;;;19.82;81.10352;938.7039;;;;
2020/08/01 04:26:59;;;;;;;14.2;8.3;;;;;;;19.98;80.38477;938.7516;;;;
2020/08/01 04:29:28;;;;;;;10.4;7.6;;;;;;;20.07;79.91113;938.7999;;;;
2020/08/01 04:31:53;;;;;;;10.1;7.6;;;;;;;20.16;79.46094;938.7037;;;;
2020/08/01 04:34:20;;;;;;;10.4;7.4;;;;;;;19.96;79.9834;938.7322;;;;
2020/08/01 04:36:48;;;;;;;12;7;;;;;;;19.99;79.88477;938.7111;;;;
2020/08/01 04:39:14;;;;;;;16.5;7.5;;;;;;;20;79.66504;938.7545;;;;
2020/08/01 04:41:38;;;;;;;11.4;7.1;;;;;;;20.07;79.51465;938.702;;;;
2020/08/01 04:44:03;;;;;;;14.4;7.6;;;;;;;20.14;79.10742;938.8092;;;;
2020/08/01 04:46:28;;;;;;;9.6;7.2;;;;;;;20.09;79.07422;938.7717;;;;
2020/08/01 04:48:53;;;;;;;11.1;7.2;;;;;;;20.09;79.33105;938.6788;;;;
2020/08/01 04:51:19;;;;;;;9.7;7.2;;;;;;;20.02;79.20215;938.6683;;;;
2020/08/01 04:53:44;;;;;;;11.7;7.2;;;;;;;20.01;79.375;938.7177;;;;
2020/08/01 04:56:09;;;;;;;8.5;7.1;;;;;;;19.98;79.47559;938.6741;;;;
2020/08/01 04:58:34;;;;;;;11.9;7.3;;;;;;;20.03;79.64844;938.7078;;;;
2020/08/01 05:01:03;;;;;;;9.7;7.1;;;;;;;20.11;78.39063;938.6959;;;;
2020/08/01 05:03:28;;;;;;;9.6;7.1;;;;;;;20.28;77.94238;938.6934;;;;
2020/08/01 05:05:57;;;;;;;9.8;7.2;;;;;;;20.46;77.7041;938.7344;;;;
2020/08/01 05:08:22;;;;;;;10.1;7.2;;;;;;;20.56;76.22754;938.6788;;;;
2020/08/01 05:10:51;;;;;;;11.5;7.1;;;;;;;20.77;75.05957;938.6465;;;;
2020/08/01 05:13:18;;;;;;;9.3;7;;;;;;;20.84;74.89648;938.6738;;;;
2020/08/01 05:15:47;;;;;;;9.6;7;;;;;;;20.93;74.58301;938.6801;;;;
2020/08/01 05:18:12;;;;;;;8.4;6.1;;;;;;;21.01;73.42773;938.6128;;;;
2020/08/01 05:20:37;;;;;;;10.2;6.7;;;;;;;21.17;73.0332;938.6211;;;;
2020/08/01 05:23:02;;;;;;;8.6;6.3;;;;;;;21.23;74.06152;938.579;;;;
2020/08/01 05:25:28;;;;;;;10;6.9;;;;;;;21.29;72.40918;938.546;;;;
2020/08/01 05:27:53;;;;;;;11.1;6.3;;;;;;;21.54;72.08691;938.5466;;;;
2020/08/01 05:30:18;;;;;;;7.8;5.8;;;;;;;22.43;70.10938;938.6288;;;;
2020/08/01 05:32:44;;;;;;;8.6;5.3;;;;;;;23.41;65.43066;938.6544;;;;
2020/08/01 05:35:11;;;;;;;7.1;5.4;;;;;;;24.54;63.41602;938.6203;;;;
2020/08/01 05:37:38;;;;;;;7.4;5.3;;;;;;;25.67;59.08594;938.5609;;;;
2020/08/01 05:40:03;;;;;;;9.8;5.6;;;;;;;26.72;54.87695;938.6334;;;;
2020/08/01 05:44:53;;;;;;;8.3;4.6;;;;;;;27.98;51.5752;938.5758;;;;
2020/08/01 05:47:19;;;;;;;8.2;4.5;;;;;;;28.89;49.2041;938.522;;;;
2020/08/01 05:49:44;;;;;;;7.2;4.1;;;;;;;29.84;47.29199;938.54;;;;
2020/08/01 05:52:12;;;;;;;8.4;4;;;;;;;29.92;44.67578;938.5389;;;;
2020/08/01 05:54:37;;;;;;;6.7;3.8;;;;;;;29.38;45.61133;938.5262;;;;
2020/08/01 05:57:02;;;;;;;5.7;4.2;;;;;;;29.53;45.66211;938.3917;;;;
2020/08/01 05:59:27;;;;;;;4.3;3.9;;;;;;;29.99;46.11426;938.4715;;;;
2020/08/01 06:01:52;;;;;;;5.8;4.2;;;;;;;30.56;45.50293;938.4604;;;;
2020/08/01 06:04:19;;;;;;;6.7;4.5;;;;;;;31.24;42.10156;938.4672;;;;
2020/08/01 06:06:44;;;;;;;6.3;4.2;;;;;;;30.47;43.90625;938.4042;;;;
2020/08/01 06:09:13;;;;;;;6.2;4;;;;;;;31.1;43.36816;938.397;;;;
2020/08/01 06:11:38;;;;;;;7.7;4;;;;;;;30.92;42.8252;938.4095;;;;
2020/08/01 06:14:03;;;;;;;6.2;3.9;;;;;;;31.16;43.53027;938.4006;;;;
2020/08/01 06:16:30;;;;;;;5.6;3.7;;;;;;;31.86;41.29688;938.4156;;;;
2020/08/01 06:18:55;;;;;;;5.8;4;;;;;;;32.22;41.43848;938.3805;;;;
2020/08/01 06:21:25;;;;;;;6.3;3.8;;;;;;;32.87;39.49219;938.3703;;;;
2020/08/01 06:23:50;;;;;;;5.3;3.9;;;;;;;33.05;39.08691;938.3787;;;;
2020/08/01 06:26:17;;;;;;;6.5;3.5;;;;;;;33.16;38.41113;938.334;;;;
2020/08/01 06:28:43;;;;;;;5.6;4;;;;;;;33.31;37.53418;938.3663;;;;
2020/08/01 06:31:08;;;;;;;7.7;4;;;;;;;33.77;40.32813;938.2711;;;;
2020/08/01 06:33:33;;;;;;;6.2;3.9;;;;;;;34.21;37.18652;938.2651;;;;
2020/08/01 06:36:05;;;;;;;6.5;3.8;;;;;;;34.93;35.66602;938.299;;;;
2020/08/01 06:38:31;;;;;;;4.1;3.4;;;;;;;35.76;35.81543;938.2946;;;;
2020/08/01 06:40:59;;;;;;;6;3.6;;;;;;;36.13;34.73242;938.3209;;;;
2020/08/01 06:43:24;;;;;;;4.2;3.2;;;;;;;36.55;34.83691;938.2903;;;;
2020/08/01 06:45:49;;;;;;;4.4;3.2;;;;;;;36.82;33.31836;938.2745;;;;
2020/08/01 06:48:14;;;;;;;4.8;3.3;;;;;;;37.24;32.02734;938.2445;;;;
2020/08/01 06:50:39;;;;;;;5;3.2;;;;;;;36.88;32.8623;938.1789;;;;
2020/08/01 06:53:05;;;;;;;6.2;3.5;;;;;;;36.87;33.49219;938.182;;;;
2020/08/01 06:55:29;;;;;;;5.4;3.3;;;;;;;37.15;31.66992;938.1725;;;;
2020/08/01 06:57:55;;;;;;;5.2;3.1;;;;;;;37.48;31.23145;938.1538;;;;
2020/08/01 07:00:25;;;;;;;5.1;3.3;;;;;;;37.61;30.61035;938.1676;;;;
2020/08/01 07:02:51;;;;;;;5.5;3.3;;;;;;;38.21;31.40332;938.1775;;;;
2020/08/01 07:05:17;;;;;;;5.6;3.6;;;;;;;38.19;29.25195;938.0952;;;;
2020/08/01 07:07:42;;;;;;;7.1;3.5;;;;;;;38.34;30.01465;938.1497;;;;
2020/08/01 07:10:12;;;;;;;4.6;3.1;;;;;;;38.52;30.65918;938.1414;;;;
2020/08/01 07:12:37;;;;;;;7.1;3.5;;;;;;;38.19;31.25586;938.113;;;;
2020/08/01 07:15:05;;;;;;;5;3.4;;;;;;;38.75;30.60059;938.0778;;;;
2020/08/01 07:17:32;;;;;;;7;3.3;;;;;;;38.87;29.85352;938.0872;;;;
2020/08/01 07:19:57;;;;;;;4.9;3.3;;;;;;;39.58;30.12012;938.1158;;;;
2020/08/01 07:22:24;;;;;;;5.7;3.5;;;;;;;39.44;27.3457;938.1201;;;;
2020/08/01 07:24:56;;;;;;;5.2;3.7;;;;;;;39.87;27.2002;938.1156;;;;
2020/08/01 07:27:20;;;;;;;4.9;3.4;;;;;;;39.65;28.00391;938.0446;;;;
2020/08/01 07:29:46;;;;;;;5.9;3.4;;;;;;;39.7;28.54297;938.0892;;;;
2020/08/01 07:32:14;;;;;;;5.8;3.6;;;;;;;39.54;28.31445;938.0355;;;;
2020/08/01 07:34:40;;;;;;;7.5;3.4;;;;;;;39.27;28.94238;937.9959;;;;
2020/08/01 07:37:08;;;;;;;4.9;3.4;;;;;;;40.03;28.92871;938.0111;;;;
2020/08/01 07:39:34;;;;;;;5.3;3.5;;;;;;;40.58;26.43555;938.0256;;;;
2020/08/01 07:41:58;;;;;;;4.8;3.8;;;;;;;36.77;29.63281;937.9597;;;;
2020/08/01 07:44:25;;;;;;;4.8;3.5;;;;;;;38.41;30.01855;937.976;;;;
2020/08/01 07:46:51;;;;;;;8.3;3.5;;;;;;;39.16;27.62109;937.9529;;;;
2020/08/01 07:49:17;;;;;;;5.5;3.7;;;;;;;39.17;27.06152;937.923;;;;
2020/08/01 07:51:44;;;;;;;6.7;3.5;;;;;;;38.49;28.46875;937.8854;;;;
2020/08/01 07:54:12;;;;;;;5.7;3.5;;;;;;;38.71;28.66504;937.9026;;;;
2020/08/01 07:56:37;;;;;;;6.9;3.7;;;;;;;39.18;27.28125;937.9547;;;;
2020/08/01 07:59:03;;;;;;;5.9;3.6;;;;;;;39.2;27.47754;937.887;;;;
2020/08/01 08:01:30;;;;;;;6.9;3.5;;;;;;;40.5;28.4209;937.8976;;;;
2020/08/01 08:03:54;;;;;;;7.7;3.7;;;;;;;41.31;26.24609;937.8923;;;;
2020/08/01 08:06:20;;;;;;;4.8;2.9;;;;;;;41.89;24.45313;937.8887;;;;
2020/08/01 08:08:48;;;;;;;5.8;3.1;;;;;;;42.21;23.71094;937.8806;;;;
2020/08/01 08:11:21;;;;;;;9;3.1;;;;;;;42.84;24.12402;937.8526;;;;
2020/08/01 08:13:49;;;;;;;4.7;3.2;;;;;;;42.4;24.7998;937.798;;;;
2020/08/01 08:16:14;;;;;;;5.3;3.1;;;;;;;42.23;23.89648;937.814;;;;
2020/08/01 08:18:45;;;;;;;6.2;3.2;;;;;;;42.16;24.51758;937.7783;;;;
2020/08/01 08:21:12;;;;;;;4.7;3.2;;;;;;;42.56;24.13379;937.8269;;;;
2020/08/01 08:23:37;;;;;;;4.4;3.3;;;;;;;42.39;24.49219;937.8344;;;;
2020/08/01 08:26:02;;;;;;;6.6;3.2;;;;;;;41.99;25.78223;937.8368;;;;
2020/08/01 08:28:28;;;;;;;12.7;3.6;;;;;;;43.08;23.09277;937.8713;;;;
2020/08/01 08:30:53;;;;;;;5.7;3.1;;;;;;;42.36;26.64844;937.8469;;;;
2020/08/01 08:33:18;;;;;;;7.2;3.4;;;;;;;41.22;27.01074;937.8173;;;;
2020/08/01 08:35:46;;;;;;;5.9;3.5;;;;;;;39.62;27.42969;937.8969;;;;
2020/08/01 08:38:11;;;;;;;5;3.2;;;;;;;38.73;31.99805;937.8317;;;;
2020/08/01 08:40:36;;;;;;;7.5;3.7;;;;;;;39.02;32.0918;937.8621;;;;
2020/08/01 08:43:01;;;;;;;8.3;3.7;;;;;;;38.71;29.95313;937.7972;;;;
2020/08/01 08:45:28;;;;;;;6.7;3.7;;;;;;;38.76;31.6709;937.7725;;;;
2020/08/01 08:47:54;;;;;;;6.2;3.8;;;;;;;38.99;29.61816;937.7792;;;;
2020/08/01 08:50:21;;;;;;;5.5;3.7;;;;;;;40.84;29.49316;937.8032;;;;
2020/08/01 08:52:46;;;;;;;7.7;3.9;;;;;;;41.88;27.37988;937.8274;;;;
2020/08/01 08:55:12;;;;;;;7.6;3.3;;;;;;;41.43;27.26758;937.8267;;;;
2020/08/01 08:57:37;;;;;;;5.1;2.9;;;;;;;40.36;28.01074;937.8858;;;;
2020/08/01 09:00:02;;;;;;;6.9;3.3;;;;;;;39.89;28.22559;937.8459;;;;
2020/08/01 09:02:27;;;;;;;5.9;2.9;;;;;;;39.82;28.45313;937.8326;;;;
2020/08/01 09:04:52;;;;;;;4.4;3.3;;;;;;;38.84;29.21973;937.7813;;;;
2020/08/01 09:07:17;;;;;;;6.1;3.2;;;;;;;38.28;28.49121;937.783;;;;
2020/08/01 09:09:42;;;;;;;5.5;3.3;;;;;;;38.61;30.96875;937.7715;;;;
2020/08/01 09:12:19;;;;;;;5.4;3.1;;;;;;;39.15;28.70313;937.7856;;;;
2020/08/01 09:14:44;;;;;;;5.7;3.3;;;;;;;39.07;31.44922;937.7383;;;;
2020/08/01 09:17:09;;;;;;;6.7;3.2;;;;;;;38.8;30.32422;937.6889;;;;
2020/08/01 09:19:34;;;;;;;7.9;3.6;;;;;;;38.16;31.66699;937.7148;;;;
2020/08/01 09:21:59;;;;;;;4.7;3.6;;;;;;;37.2;31.83105;937.6542;;;;
2020/08/01 09:24:24;;;;;;;7.4;3.7;;;;;;;38;30.47754;937.6676;;;;
2020/08/01 09:26:49;;;;;;;5;3.4;;;;;;;37.98;30.98633;937.6414;;;;
2020/08/01 09:29:14;;;;;;;5.9;3.7;;;;;;;38.36;30.46582;937.6012;;;;
2020/08/01 09:31:40;;;;;;;6;3.3;;;;;;;38.04;30.08008;937.6331;;;;
2020/08/01 09:34:05;;;;;;;10;3.8;;;;;;;37.7;30.67578;937.5947;;;;
2020/08/01 09:36:30;;;;;;;7.9;3.8;;;;;;;37.2;35.52832;937.595;;;;
2020/08/01 09:38:55;;;;;;;9.4;3.4;;;;;;;36.8;31.42773;937.6152;;;;
2020/08/01 09:41:21;;;;;;;7.2;3.4;;;;;;;36.41;34.77734;937.6191;;;;
2020/08/01 09:43:46;;;;;;;5.8;3.4;;;;;;;35.58;32.25;937.5997;;;;
2020/08/01 09:46:11;;;;;;;6;3.3;;;;;;;35.49;37.61816;937.624;;;;
2020/08/01 09:48:36;;;;;;;7.4;3.3;;;;;;;35.58;37.20313;937.5461;;;;
2020/08/01 09:51:01;;;;;;;4;2.9;;;;;;;35.68;37.73047;937.5659;;;;
2020/08/01 09:53:26;;;;;;;5.8;3.1;;;;;;;35.9;37.63965;937.556;;;;
2020/08/01 09:55:52;;;;;;;6.3;3.3;;;;;;;36.33;36.28418;937.5332;;;;
2020/08/01 09:58:18;;;;;;;9.2;3.5;;;;;;;36.69;34.95605;937.4816;;;;
2020/08/01 10:00:44;;;;;;;7.9;3.5;;;;;;;36.82;31.63477;937.4472;;;;
2020/08/01 10:03:09;;;;;;;5.2;3.3;;;;;;;37.28;33.49805;937.4;;;;
2020/08/01 10:05:34;;;;;;;5.1;3.4;;;;;;;37.47;32.14063;937.4495;;;;
2020/08/01 10:07:59;;;;;;;13.8;3.7;;;;;;;37.6;35.08691;937.3873;;;;
2020/08/01 10:10:24;;;;;;;6.6;3.6;;;;;;;37.18;35.76953;937.3772;;;;
2020/08/01 10:12:49;;;;;;;5;3.2;;;;;;;36.85;35.73145;937.3787;;;;
2020/08/01 10:15:14;;;;;;;8.3;3.4;;;;;;;36.89;33.96582;937.3958;;;;
2020/08/01 10:17:40;;;;;;;4.5;3.3;;;;;;;37.19;34.10938;937.3513;;;;
2020/08/01 10:20:05;;;;;;;7;3.5;;;;;;;36.99;33.96094;937.3407;;;;
2020/08/01 10:22:30;;;;;;;8;3.3;;;;;;;36.66;35.18359;937.3334;;;;
2020/08/01 10:24:55;;;;;;;5.7;3.3;;;;;;;37.03;35.12695;937.3108;;;;
2020/08/01 10:27:20;;;;;;;4.9;3.2;;;;;;;36.91;33.08203;937.2787;;;;
2020/08/01 10:29:45;;;;;;;5.5;3.3;;;;;;;36.96;33.24414;937.275;;;;
2020/08/01 10:32:13;;;;;;;5.8;3.5;;;;;;;37.48;34.65234;937.3566;;;;
2020/08/01 10:34:38;;;;;;;5.7;3.2;;;;;;;37.99;34.15723;937.3692;;;;
2020/08/01 10:37:04;;;;;;;5.5;3.2;;;;;;;38.29;31.85742;937.3692;;;;
2020/08/01 10:41:18;;;;;;;4.7;3;;;;;;;38.85;31.49512;937.3614;;;;
2020/08/01 10:42:01;;;;;;;4.9;3;;;;;;;39.28;28.63867;937.3632;;;;
2020/08/01 10:44:26;;;;;;;6.1;3.1;;;;;;;38.84;29.51172;937.3438;;;;
2020/08/01 10:46:54;;;;;;;4.6;2.7;;;;;;;39.36;31.48145;937.3318;;;;
2020/08/01 10:49:20;;;;;;;6.9;3.1;;;;;;;40.01;28.11133;937.3521;;;;
2020/08/01 10:51:45;;;;;;;7.2;2.8;;;;;;;40.06;27.23633;937.2885;;;;
2020/08/01 10:54:11;;;;;;;4.8;3.1;;;;;;;39.52;28.99512;937.3074;;;;
2020/08/01 10:56:35;;;;;;;8;2.9;;;;;;;40.28;29.25098;937.3287;;;;
2020/08/01 10:59:00;;;;;;;4.7;2.9;;;;;;;40.03;27.97754;937.2686;;;;
2020/08/01 11:01:29;;;;;;;5.2;3;;;;;;;40.07;26.60254;937.2422;;;;
2020/08/01 11:03:54;;;;;;;4.6;2.9;;;;;;;40.18;28.85352;937.1794;;;;
2020/08/01 11:06:19;;;;;;;8.9;3;;;;;;;40.64;27.92969;937.1392;;;;
2020/08/01 11:08:45;;;;;;;7.6;2.6;;;;;;;40.25;24.50098;937.1605;;;;
2020/08/01 11:11:14;;;;;;;4.3;2.7;;;;;;;39.88;27.56641;937.1542;;;;
2020/08/01 11:13:39;;;;;;;7.1;2.9;;;;;;;38.88;26.88672;937.1057;;;;
2020/08/01 11:16:05;;;;;;;5.6;2.8;;;;;;;38.38;27.95117;937.1764;;;;
2020/08/01 11:18:30;;;;;;;6.5;2.8;;;;;;;37.72;27.03711;937.0942;;;;
2020/08/01 11:20:56;;;;;;;5.8;2.9;;;;;;;37.32;30.63867;937.0416;;;;
2020/08/01 11:23:21;;;;;;;3.6;2.6;;;;;;;37.8;28.77832;937.0341;;;;
2020/08/01 11:25:52;;;;;;;4;2.8;;;;;;;38.48;28.37012;936.9847;;;;
2020/08/01 11:28:19;;;;;;;5.6;2.8;;;;;;;38.83;28.36719;937.0119;;;;
2020/08/01 11:30:45;;;;;;;6.9;3.2;;;;;;;38.48;28.06641;936.9526;;;;
2020/08/01 11:33:10;;;;;;;7;2.9;;;;;;;38.69;28.7959;937.0139;;;;
2020/08/01 11:35:35;;;;;;;4.5;3;;;;;;;39.03;28.92871;936.9871;;;;
2020/08/01 11:38:00;;;;;;;5.8;2.6;;;;;;;38.85;26.49512;936.9617;;;;
2020/08/01 11:40:25;;;;;;;5.7;3.2;;;;;;;38.24;27.71191;936.9021;;;;
2020/08/01 11:42:50;;;;;;;6.7;2.7;;;;;;;37.58;28.99414;936.9028;;;;
2020/08/01 11:45:16;;;;;;;6.7;3.3;;;;;;;36.87;31.23926;936.8621;;;;
2020/08/01 11:47:41;;;;;;;5.2;3;;;;;;;36.24;33.96582;936.8378;;;;
2020/08/01 11:50:07;;;;;;;8.7;3.5;;;;;;;35.56;34.60352;936.8276;;;;
2020/08/01 11:52:31;;;;;;;7.4;3;;;;;;;34.66;35.5127;936.776;;;;
2020/08/01 11:54:56;;;;;;;5.8;3.1;;;;;;;34.13;34.91699;936.7813;;;;
2020/08/01 11:57:21;;;;;;;4.9;3;;;;;;;33.95;37.80371;936.7689;;;;
2020/08/01 11:59:46;;;;;;;6.4;3.2;;;;;;;33.84;37.72266;936.7537;;;;
2020/08/01 12:02:12;;;;;;;4.3;3;;;;;;;33.79;36.85254;936.6742;;;;
2020/08/01 12:04:37;;;;;;;6.4;3;;;;;;;33.82;36.62598;936.6931;;;;
2020/08/01 12:07:03;;;;;;;9.7;3.4;;;;;;;34.01;38.31445;936.6179;;;;
2020/08/01 12:09:28;;;;;;;12.3;3.5;;;;;;;34.37;38.53809;936.5684;;;;
2020/08/01 12:11:53;;;;;;;7.8;3;;;;;;;34.7;38.2041;936.5452;;;;
2020/08/01 12:14:18;;;;;;;7.5;3;;;;;;;34.89;35.73633;936.5078;;;;
2020/08/01 12:16:43;;;;;;;6.3;2.9;;;;;;;34.83;36.61133;936.4562;;;;
2020/08/01 12:19:08;;;;;;;4.6;2.8;;;;;;;34.82;35.53711;936.4617;;;;
2020/08/01 12:21:33;;;;;;;6.2;3.1;;;;;;;34.55;34.33496;936.3714;;;;
2020/08/01 12:23:59;;;;;;;6.5;3.1;;;;;;;34.36;36.94727;936.3665;;;;
2020/08/01 12:26:24;;;;;;;7.2;2.9;;;;;;;34.33;34.98047;936.3744;;;;
2020/08/01 12:28:49;;;;;;;5.5;3.2;;;;;;;34;34.83496;936.3167;;;;
2020/08/01 12:31:17;;;;;;;7.8;3.1;;;;;;;33.9;36.66895;936.2892;;;;
2020/08/01 12:33:43;;;;;;;5.6;2.9;;;;;;;33.99;35.56934;936.2924;;;;
2020/08/01 12:36:08;;;;;;;6.9;3.3;;;;;;;34.18;36.71582;936.2645;;;;
2020/08/01 12:38:33;;;;;;;6.2;3.2;;;;;;;34.38;35.91211;936.2291;;;;
2020/08/01 12:40:58;;;;;;;4.3;2.9;;;;;;;34.61;35.44824;936.2104;;;;
2020/08/01 12:43:24;;;;;;;5.7;3;;;;;;;34.5;33.06543;936.2092;;;;
2020/08/01 12:45:49;;;;;;;4.9;3;;;;;;;34.54;33.12891;936.1672;;;;
2020/08/01 12:48:14;;;;;;;4.9;3;;;;;;;34.26;34.06055;936.1861;;;;
2020/08/01 12:50:45;;;;;;;5;2.9;;;;;;;33.51;34.67676;936.1423;;;;
2020/08/01 12:53:10;;;;;;;6.3;3.1;;;;;;;33.19;33.61914;936.0667;;;;
2020/08/01 12:55:36;;;;;;;7.7;3.2;;;;;;;33.15;36.18848;936.0592;;;;
2020/08/01 12:58:01;;;;;;;4.2;3;;;;;;;32.82;37.29004;936.1406;;;;
2020/08/01 13:00:26;;;;;;;6.1;3.1;;;;;;;32.96;36.47266;936.1866;;;;
2020/08/01 13:02:51;;;;;;;6;2.9;;;;;;;33.27;35.2959;936.1006;;;;
2020/08/01 13:05:28;;;;;;;4.6;2.9;;;;;;;33.65;35.97559;936.0309;;;;
2020/08/01 13:07:53;;;;;;;10.3;3.3;;;;;;;34;36.9541;936.0336;;;;
2020/08/01 13:10:23;;;;;;;5.5;2.9;;;;;;;34.25;35.31152;936.0931;;;;
2020/08/01 13:12:48;;;;;;;5.8;2.9;;;;;;;34.36;33.94727;936.0572;;;;
2020/08/01 13:15:14;;;;;;;4.9;2.6;;;;;;;34.43;33.54297;936.0812;;;;
2020/08/01 13:17:40;;;;;;;4.4;2.9;;;;;;;34.28;33.53125;936.0508;;;;
2020/08/01 13:20:08;;;;;;;5.4;2.9;;;;;;;34.12;33.375;936.0603;;;;
2020/08/01 13:22:33;;;;;;;7;3.1;;;;;;;33.61;34.67383;936.0809;;;;
2020/08/01 13:24:58;;;;;;;8.1;3.1;;;;;;;33.34;36.20313;936.0327;;;;
2020/08/01 13:27:23;;;;;;;6;2.8;;;;;;;33.01;34.02637;936.0592;;;;
2020/08/01 13:29:48;;;;;;;6.8;2.7;;;;;;;32.79;35.10352;936.1181;;;;
2020/08/01 13:32:15;;;;;;;6.7;2.8;;;;;;;32.61;36.31348;936.0969;;;;
2020/08/01 13:34:50;;;;;;;7.4;2.9;;;;;;;32.48;37.94629;936.2247;;;;
2020/08/01 13:37:15;;;;;;;5.4;3.1;;;;;;;32.36;38.43945;936.2681;;;;
2020/08/01 13:39:40;;;;;;;4.2;2.9;;;;;;;32.22;38.61914;936.2678;;;;
2020/08/01 13:42:11;;;;;;;3.8;3;;;;;;;32.07;37.13281;936.2166;;;;
2020/08/01 13:44:36;;;;;;;7.4;3.2;;;;;;;32.01;36.58887;936.1342;;;;
2020/08/01 13:47:01;;;;;;;5.7;2.8;;;;;;;32.29;34.68066;936.1523;;;;
2020/08/01 13:49:27;;;;;;;4;2.5;;;;;;;32.44;33.69629;936.1241;;;;
2020/08/01 13:51:52;;;;;;;3.9;2.7;;;;;;;32.64;34.16699;936.1591;;;;
2020/08/01 13:54:17;;;;;;;6.2;2.9;;;;;;;32.83;33.85742;936.1245;;;;
2020/08/01 13:56:42;;;;;;;5.7;2.7;;;;;;;32.83;35.00977;936.1702;;;;
2020/08/01 13:59:08;;;;;;;5.9;2.7;;;;;;;32.61;32.0166;936.0797;;;;
2020/08/01 14:01:32;;;;;;;6.2;2.7;;;;;;;32.49;31.97266;936.1118;;;;
2020/08/01 14:03:57;;;;;;;5.9;2.5;;;;;;;32.5;31.90137;935.9939;;;;
2020/08/01 14:06:27;;;;;;;7.7;2.9;;;;;;;32.38;32.78027;935.9829;;;;
2020/08/01 14:08:52;;;;;;;6.1;2.6;;;;;;;32.37;34.57813;935.9514;;;;
2020/08/01 14:11:25;;;;;;;3.8;2.5;;;;;;;32.25;35.03711;935.8839;;;;
2020/08/01 14:13:50;;;;;;;7.3;2.8;;;;;;;32.14;37.06738;935.9063;;;;
2020/08/01 14:16:15;;;;;;;5.1;2.8;;;;;;;31.86;34.28809;935.9242;;;;
2020/08/01 14:18:40;;;;;;;4.6;3.1;;;;;;;31.7;37.53418;935.8781;;;;
2020/08/01 14:21:05;;;;;;;5.7;2.6;;;;;;;31.62;36.15039;935.8738;;;;
2020/08/01 14:23:31;;;;;;;6.5;2.8;;;;;;;31.49;37.48047;935.8796;;;;
2020/08/01 14:25:56;;;;;;;6.1;2.8;;;;;;;31.29;36.0166;935.8689;;;;
2020/08/01 14:28:21;;;;;;;5.8;3.1;;;;;;;31.19;37.9707;935.8723;;;;
2020/08/01 14:30:46;;;;;;;6.1;3.1;;;;;;;31.12;36.94727;935.8895;;;;
2020/08/01 14:33:11;;;;;;;5.5;2.9;;;;;;;31.15;36.75879;935.9116;;;;
2020/08/01 14:35:36;;;;;;;10.6;3.2;;;;;;;31.06;37.16992;935.8842;;;;
2020/08/01 14:38:01;;;;;;;3.5;2.8;;;;;;;31.09;36.29883;935.8727;;;;
2020/08/01 14:40:29;;;;;;;8.3;3.1;;;;;;;31.03;35.625;935.7986;;;;
2020/08/01 14:42:54;;;;;;;7.7;3.1;;;;;;;31.11;36.14453;935.7877;;;;
2020/08/01 14:45:19;;;;;;;8;3.4;;;;;;;31.27;35.8584;935.775;;;;
2020/08/01 14:47:45;;;;;;;6.2;3;;;;;;;31.33;37.24023;935.7692;;;;
2020/08/01 14:50:10;;;;;;;10.7;3.5;;;;;;;31.29;38.24219;935.6807;;;;
2020/08/01 14:52:35;;;;;;;10.3;3.3;;;;;;;31.29;38.69629;935.8008;;;;
2020/08/01 14:55:00;;;;;;;7.8;3.2;;;;;;;31.18;36.25879;935.8047;;;;
2020/08/01 14:57:25;;;;;;;7.5;2.7;;;;;;;31.12;35.87012;935.7606;;;;
2020/08/01 14:59:51;;;;;;;6.2;2.8;;;;;;;30.93;34.99512;935.7144;;;;
2020/08/01 15:02:21;;;;;;;4.8;2.6;;;;;;;30.88;34.09473;935.6241;;;;
2020/08/01 15:04:44;;;;;;;5.5;2.9;;;;;;;30.98;34.29297;935.635;;;;
2020/08/01 15:07:10;;;;;;;5.3;2.9;;;;;;;30.91;34.63477;935.6847;;;;
2020/08/01 15:09:35;;;;;;;7.4;2.9;;;;;;;30.91;34.96973;935.7556;;;;
2020/08/01 15:12:02;;;;;;;3.8;2.8;;;;;;;30.98;34.44922;935.8922;;;;
2020/08/01 15:14:27;;;;;;;5.1;2.8;;;;;;;31.01;35.68359;935.9317;;;;
2020/08/01 15:16:53;;;;;;;5.4;2.7;;;;;;;31.02;36.14941;935.9692;;;;
2020/08/01 15:19:17;;;;;;;4.7;2.8;;;;;;;30.96;36.46777;936.0589;;;;
2020/08/01 15:21:43;;;;;;;6.4;2.8;;;;;;;30.86;37.0459;936.0394;;;;
2020/08/01 15:24:08;;;;;;;5.3;2.8;;;;;;;31.03;38.24414;936.0793;;;;
2020/08/01 15:26:33;;;;;;;6.6;2.9;;;;;;;31.1;38.11816;936.2274;;;;
2020/08/01 15:28:58;;;;;;;7.2;3;;;;;;;30.96;36.98242;936.3422;;;;
2020/08/01 15:31:23;;;;;;;5.2;3;;;;;;;30.26;39.39648;936.5369;;;;